F/V Roger Christian3 — FUFL — position and weather

sailwx.info

Track history (hours):
 
Tides and Currents Weather Stations Pressure Air Temp Water Temp Dewpoint Dewpoint Depression Visibility Wind Speed Wind Dir Waves Ship Positions

F/V Roger Christian3

Last reported at 2016-May-28 03:33 UTC. Time now 2016-May-30 20:21 UTC.
Position N 38°37' E 000°57'.

Length 24 m; draft 4 m.

Type: Fishing. MMSI: 228173800.

Date/timePositionNaut miles runAvg speedWind from/ knotsBaromVisibWave heightAir tempDewpointWater temp
2016-May-28 03:33N 38°37' E 000°57'1 0.4
2016-May-28 02:19N 38°37' E 000°57'1 0.5
2016-May-28 00:21N 38°36' E 000°56'1 0.6
2016-May-27 22:12N 38°34' E 000°56'1 0.6
2016-May-27 21:07N 38°34' E 000°56'  
2016-May-24 06:10N 40°01' E 000°58'1 2.4
2016-May-24 05:33N 40°02' E 000°58'2 2.4
2016-May-24 04:33N 40°04' E 000°58'2 2.2
2016-May-24 03:33N 40°07' E 000°59'5 2.3
2016-May-24 01:28N 40°11' E 000°59'9 2.3
2016-May-23 21:33N 40°20' E 000°59'  
Track history (hours):
 
Tides and Currents Weather Stations Pressure Air Temp Water Temp Dewpoint Dewpoint Depression Visibility Wind Speed Wind Dir Waves Ship Positions

F/V Roger Christian3

Last reported at 2016-May-28 03:33 UTC. Time now 2016-May-30 20:21 UTC.
Position N 38°37' E 000°57'.

Length 24 m; draft 4 m.

Type: Fishing. MMSI: 228173800.

Date/timePositionNaut miles runAvg speedWind from/ knotsBaromVisibWave heightAir tempDewpointWater temp
2016-May-28 03:33N 38°37' E 000°57'1 0.4
2016-May-28 02:19N 38°37' E 000°57'1 0.5
2016-May-28 00:21N 38°36' E 000°56'1 0.6
2016-May-27 22:12N 38°34' E 000°56'1 0.6
2016-May-27 21:07N 38°34' E 000°56'  
2016-May-24 06:10N 40°01' E 000°58'1 2.4
2016-May-24 05:33N 40°02' E 000°58'2 2.4
2016-May-24 04:33N 40°04' E 000°58'2 2.2
2016-May-24 03:33N 40°07' E 000°59'5 2.3
2016-May-24 01:28N 40°11' E 000°59'9 2.3
2016-May-23 21:33N 40°20' E 000°59'  

Dump ship's entire track history